createdAt,value
2022-11-07T00:01:16.295Z,0.70
2022-11-07T00:03:45.401Z,0.60
2022-11-07T00:06:13.126Z,0.80
2022-11-07T00:08:40.916Z,0.90
2022-11-07T00:11:08.983Z,0.80
2022-11-07T00:13:36.683Z,0.90
2022-11-07T00:16:06.939Z,0.88
2022-11-07T00:18:35.227Z,1.23
2022-11-07T00:21:05.975Z,0.90
2022-11-07T00:23:33.771Z,1.55
2022-11-07T00:26:03.127Z,0.80
2022-11-07T00:28:33.728Z,0.73
2022-11-07T00:31:01.488Z,1.00
2022-11-07T00:33:29.197Z,1.27
2022-11-07T00:35:56.904Z,1.10
2022-11-07T00:38:25.959Z,0.80
2022-11-07T00:40:56.003Z,0.80
2022-11-07T00:43:23.887Z,0.80
2022-11-07T00:45:51.754Z,0.88
2022-11-07T00:48:19.735Z,0.80
2022-11-07T00:50:47.486Z,0.90
2022-11-07T00:53:15.744Z,0.90
2022-11-07T00:55:45.019Z,0.73
2022-11-07T00:58:14.423Z,0.70
2022-11-07T01:00:42.620Z,1.15
2022-11-07T01:03:24.261Z,0.75
2022-11-07T01:06:00.307Z,0.85
2022-11-07T01:08:28.721Z,1.00
2022-11-07T01:10:58.411Z,0.60
2022-11-07T01:13:26.748Z,2.25
2022-11-07T01:15:54.464Z,0.80
2022-11-07T01:18:22.228Z,0.77
2022-11-07T01:20:50.425Z,1.10
2022-11-07T01:23:18.793Z,0.90
2022-11-07T01:25:46.708Z,0.70
2022-11-07T01:28:16.318Z,0.90
2022-11-07T01:30:45.427Z,0.80
2022-11-07T01:33:14.134Z,0.88
2022-11-07T01:35:42.185Z,0.90
2022-11-07T01:38:09.914Z,0.80
2022-11-07T01:40:57.655Z,0.82
2022-11-07T01:43:42.172Z,0.98
2022-11-07T01:46:09.880Z,0.85
2022-11-07T01:48:38.036Z,0.95
2022-11-07T01:51:05.979Z,1.20
2022-11-07T01:53:36.436Z,1.38
2022-11-07T01:56:04.960Z,0.82
2022-11-07T01:58:34.006Z,1.38
2022-11-07T02:01:02.244Z,1.02
2022-11-07T02:03:31.297Z,0.80
2022-11-07T02:06:04.804Z,1.10
2022-11-07T02:08:35.259Z,0.98
2022-11-07T02:11:04.615Z,1.00
2022-11-07T02:13:34.213Z,1.30
2022-11-07T02:16:04.153Z,1.10
2022-11-07T02:18:35.007Z,0.90
2022-11-07T02:21:09.277Z,0.82
2022-11-07T02:23:42.847Z,1.30
2022-11-07T02:26:12.367Z,1.75
2022-11-07T02:28:41.694Z,1.00
2022-11-07T02:31:09.388Z,1.10
2022-11-07T02:33:37.103Z,0.90
2022-11-07T02:36:05.119Z,0.95
2022-11-07T02:38:35.222Z,1.20
2022-11-07T02:41:06.158Z,0.93
2022-11-07T02:43:39.347Z,0.80
2022-11-07T02:46:11.070Z,1.20
2022-11-07T02:48:43.528Z,1.08
2022-11-07T02:51:11.432Z,1.15
2022-11-07T02:53:39.115Z,1.02
2022-11-07T02:56:07.571Z,1.00
2022-11-07T02:58:37.062Z,0.90
2022-11-07T03:01:07.722Z,1.10
2022-11-07T03:03:36.587Z,1.05
2022-11-07T03:06:04.455Z,1.00
2022-11-07T03:08:32.276Z,1.10
2022-11-07T03:11:00.474Z,0.98
2022-11-07T03:13:28.471Z,1.30
2022-11-07T03:15:57.675Z,0.88
2022-11-07T03:18:25.572Z,0.90
2022-11-07T03:20:53.296Z,0.80
2022-11-07T03:23:20.983Z,1.10
2022-11-07T03:25:48.704Z,1.23
2022-11-07T03:28:16.395Z,0.90
2022-11-07T03:30:44.097Z,0.80
2022-11-07T03:33:13.490Z,2.80
2022-11-07T03:35:42.409Z,1.23
2022-11-07T03:38:10.764Z,1.05
2022-11-07T03:40:38.650Z,1.35
2022-11-07T03:43:06.336Z,1.13
2022-11-07T03:45:34.013Z,1.10
2022-11-07T03:48:01.704Z,1.77
2022-11-07T03:50:30.780Z,1.50
2022-11-07T03:52:58.457Z,1.90
2022-11-07T03:55:26.116Z,1.33
2022-11-07T03:57:53.844Z,1.00
2022-11-07T04:00:22.163Z,1.23
2022-11-07T04:02:49.992Z,1.10
2022-11-07T04:05:17.900Z,1.33
2022-11-07T04:07:46.913Z,1.48
2022-11-07T04:10:14.592Z,1.10
2022-11-07T04:12:56.307Z,1.38
2022-11-07T04:15:37.949Z,0.88
2022-11-07T04:18:05.767Z,1.33
2022-11-07T04:20:33.444Z,1.88
2022-11-07T04:23:02.449Z,1.10
2022-11-07T04:25:44.106Z,1.13
2022-11-07T04:28:11.931Z,1.90
2022-11-07T04:30:39.580Z,1.17
2022-11-07T04:33:07.364Z,1.20
2022-11-07T04:35:35.032Z,0.98
2022-11-07T04:38:04.060Z,1.38
2022-11-07T04:40:31.929Z,1.13
2022-11-07T04:42:59.623Z,1.05
2022-11-07T04:45:27.335Z,1.63
2022-11-07T04:47:55.163Z,1.30
2022-11-07T04:50:22.860Z,1.02
2022-11-07T04:52:50.535Z,1.35
2022-11-07T04:55:22.788Z,1.20
2022-11-07T04:57:50.556Z,1.20
2022-11-07T05:00:20.239Z,2.00
2022-11-07T05:02:48.531Z,1.23
2022-11-07T05:05:17.037Z,1.10
2022-11-07T05:07:45.383Z,1.35
2022-11-07T05:10:18.555Z,1.23
2022-11-07T05:12:47.695Z,1.00
2022-11-07T05:15:15.735Z,1.05
2022-11-07T05:17:43.492Z,1.13
2022-11-07T05:20:26.284Z,1.25
2022-11-07T05:23:07.953Z,1.10
2022-11-07T05:25:35.614Z,1.85
2022-11-07T05:28:04.767Z,1.45
2022-11-07T05:30:32.443Z,1.92
2022-11-07T05:33:00.099Z,1.40
2022-11-07T05:35:28.103Z,1.35
2022-11-07T05:37:55.829Z,1.33
2022-11-07T05:40:23.463Z,1.48
2022-11-07T05:42:51.182Z,1.10
2022-11-07T05:45:20.230Z,1.40
2022-11-07T05:47:47.972Z,1.10
2022-11-07T05:50:15.775Z,1.77
2022-11-07T05:52:43.470Z,1.35
2022-11-07T05:55:11.175Z,1.00
2022-11-07T05:57:38.877Z,0.93
2022-11-07T06:00:07.775Z,1.00
2022-11-07T06:03:02.363Z,0.70
2022-11-07T06:05:30.563Z,1.10
2022-11-07T06:08:00.670Z,1.05
2022-11-07T06:10:28.386Z,1.80
2022-11-07T06:13:00.417Z,1.35
2022-11-07T06:15:29.460Z,1.02
2022-11-07T06:17:59.524Z,1.00
2022-11-07T06:20:28.930Z,1.20
2022-11-07T06:22:58.576Z,1.08
2022-11-07T06:25:26.832Z,2.05
2022-11-07T06:27:54.579Z,1.00
2022-11-07T06:30:22.295Z,1.00
2022-11-07T06:32:49.964Z,0.90
2022-11-07T06:35:17.766Z,1.00
2022-11-07T06:37:46.901Z,1.73
2022-11-07T06:40:14.662Z,1.20
2022-11-07T06:42:42.336Z,1.80
2022-11-07T06:45:11.356Z,1.50
2022-11-07T06:47:39.373Z,1.30
2022-11-07T06:50:07.863Z,1.80
2022-11-07T06:52:35.604Z,1.33
2022-11-07T06:55:04.879Z,1.25
2022-11-07T06:57:32.619Z,1.10
2022-11-07T07:00:00.369Z,1.10
2022-11-07T07:02:52.382Z,1.25
2022-11-07T07:05:20.760Z,1.20
2022-11-07T07:07:52.911Z,1.40
2022-11-07T07:10:22.125Z,1.45
2022-11-07T07:12:49.898Z,1.98
2022-11-07T07:15:17.675Z,1.20
2022-11-07T07:17:49.367Z,1.55
2022-11-07T07:20:17.271Z,1.10
2022-11-07T07:22:48.251Z,1.10
2022-11-07T07:25:19.488Z,1.40
2022-11-07T07:27:48.554Z,0.60
2022-11-07T07:30:16.539Z,1.42
2022-11-07T07:32:45.064Z,1.20
2022-11-07T07:35:12.708Z,0.75
2022-11-07T07:37:40.568Z,1.90
2022-11-07T07:40:10.628Z,1.25
2022-11-07T07:42:43.032Z,1.10
2022-11-07T07:45:14.360Z,1.10
2022-11-07T07:47:42.628Z,1.88
2022-11-07T07:50:13.140Z,1.00
2022-11-07T07:52:41.244Z,1.45
2022-11-07T07:55:11.265Z,1.15
2022-11-07T07:57:40.323Z,1.00
2022-11-07T08:00:09.042Z,0.80
2022-11-07T08:03:04.270Z,1.30
2022-11-07T08:05:32.021Z,1.42
2022-11-07T08:07:59.731Z,1.67
2022-11-07T08:10:41.330Z,1.35
2022-11-07T08:13:10.118Z,1.13
2022-11-07T08:15:37.885Z,1.13
2022-11-07T08:18:07.361Z,1.75
2022-11-07T08:20:35.054Z,1.40
2022-11-07T08:23:04.113Z,1.40
2022-11-07T08:25:32.717Z,1.75
2022-11-07T08:28:01.349Z,1.05
2022-11-07T08:30:31.538Z,1.40
2022-11-07T08:33:00.818Z,2.40
2022-11-07T08:35:29.971Z,1.50
2022-11-07T08:37:58.293Z,1.40
2022-11-07T08:40:26.957Z,1.02
2022-11-07T08:43:05.454Z,0.83
2022-11-07T08:45:36.790Z,1.23
2022-11-07T08:48:04.999Z,1.13
2022-11-07T08:50:34.399Z,1.10
2022-11-07T08:53:14.584Z,0.90
2022-11-07T08:55:42.313Z,0.90
2022-11-07T08:58:10.040Z,1.93
2022-11-07T09:00:37.788Z,0.87
2022-11-07T09:05:58.305Z,1.00
2022-11-07T09:08:26.142Z,1.53
2022-11-07T09:10:53.851Z,1.20
2022-11-07T09:13:21.649Z,1.23
2022-11-07T09:15:51.271Z,1.27
2022-11-07T09:18:19.800Z,0.90
2022-11-07T09:20:48.147Z,1.00
2022-11-07T09:23:17.548Z,1.50
2022-11-07T09:25:46.330Z,1.30
2022-11-07T09:28:14.490Z,1.33
2022-11-07T09:30:42.299Z,0.93
2022-11-07T09:33:10.243Z,1.30
2022-11-07T09:35:38.170Z,1.13
2022-11-07T09:38:05.979Z,3.00
2022-11-07T09:40:45.744Z,1.08
2022-11-07T09:43:29.320Z,1.00
2022-11-07T09:46:04.456Z,1.25
2022-11-07T09:48:41.317Z,2.05
2022-11-07T09:51:14.854Z,1.23
2022-11-07T09:53:46.961Z,1.47
2022-11-07T09:56:16.840Z,1.20
2022-11-07T09:58:45.960Z,1.07
2022-11-07T10:01:16.885Z,1.60
2022-11-07T10:04:10.151Z,1.00
2022-11-07T10:06:36.836Z,0.87
2022-11-07T10:09:12.877Z,1.23
2022-11-07T10:11:47.592Z,1.00
2022-11-07T10:14:24.412Z,0.90
2022-11-07T10:17:06.487Z,0.90
2022-11-07T10:19:50.113Z,1.00
2022-11-07T10:22:30.502Z,0.70
2022-11-07T10:25:11.725Z,1.03
2022-11-07T10:27:40.930Z,0.73
2022-11-07T10:30:17.362Z,1.00
2022-11-07T10:32:54.828Z,1.00
2022-11-07T10:35:29.234Z,1.40
2022-11-07T10:37:58.952Z,0.77
2022-11-07T10:40:33.471Z,1.47
2022-11-07T10:43:06.131Z,1.40
2022-11-07T10:45:34.220Z,0.80
2022-11-07T10:48:04.680Z,1.00
2022-11-07T10:50:33.123Z,0.83
2022-11-07T10:53:03.271Z,1.10
2022-11-07T10:55:42.882Z,1.00
2022-11-07T10:58:20.156Z,1.10
2022-11-07T11:01:03.240Z,1.10
2022-11-07T11:03:43.621Z,1.65
2022-11-07T11:06:23.490Z,1.25
2022-11-07T11:08:53.034Z,1.08
2022-11-07T11:11:36.927Z,0.85
2022-11-07T11:14:11.784Z,1.20
2022-11-07T11:16:41.288Z,0.82
2022-11-07T11:19:23.013Z,1.15
2022-11-07T11:21:52.740Z,0.93
2022-11-07T11:24:27.746Z,0.87
2022-11-07T11:26:58.262Z,0.93
2022-11-07T11:29:39.346Z,1.70
2022-11-07T11:32:15.813Z,0.80
2022-11-07T11:34:49.772Z,2.20
2022-11-07T11:37:21.160Z,0.90
2022-11-07T11:39:53.120Z,1.13
2022-11-07T11:42:29.073Z,1.10
2022-11-07T11:45:04.741Z,0.90
2022-11-07T11:47:38.051Z,1.37
2022-11-07T11:50:13.333Z,1.20
2022-11-07T11:52:41.372Z,1.00
2022-11-07T11:55:15.122Z,1.10
2022-11-07T11:57:50.530Z,1.00
2022-11-07T12:00:21.093Z,1.33
2022-11-07T12:03:02.868Z,1.47
2022-11-07T12:05:51.956Z,1.43
2022-11-07T12:08:39.697Z,0.70
2022-11-07T12:11:14.305Z,1.00
2022-11-07T12:13:50.536Z,1.00
2022-11-07T12:16:27.988Z,2.17
2022-11-07T12:19:03.955Z,1.10
2022-11-07T12:21:33.490Z,0.67
2022-11-07T12:24:17.719Z,1.10
2022-11-07T12:26:51.609Z,0.90
2022-11-07T12:29:27.609Z,0.67
2022-11-07T12:32:07.796Z,0.97
2022-11-07T12:34:49.640Z,1.10
2022-11-07T12:37:39.255Z,0.60
2022-11-07T12:40:20.726Z,0.73
2022-11-07T12:43:01.871Z,0.90
2022-11-07T12:45:43.685Z,1.20
2022-11-07T12:48:30.054Z,1.30
2022-11-07T12:51:07.541Z,1.13
2022-11-07T12:53:43.910Z,1.03
2022-11-07T12:56:14.852Z,0.90
2022-11-07T12:58:44.824Z,0.90
2022-11-07T13:01:14.730Z,1.10
2022-11-07T13:03:53.997Z,0.87
2022-11-07T13:06:28.188Z,1.40
2022-11-07T13:09:03.810Z,0.90
2022-11-07T13:11:39.552Z,0.80
2022-11-07T13:14:24.273Z,0.83
2022-11-07T13:17:04.620Z,1.07
2022-11-07T13:19:35.477Z,1.30
2022-11-07T13:22:05.756Z,1.63
2022-11-07T13:24:37.632Z,0.80
2022-11-07T13:27:16.728Z,0.93
2022-11-07T13:29:45.103Z,0.90
2022-11-07T13:32:14.435Z,0.90
2022-11-07T13:34:49.200Z,0.97
2022-11-07T13:37:21.993Z,1.03
2022-11-07T13:39:54.216Z,1.40
2022-11-07T13:42:24.916Z,0.60
2022-11-07T13:44:55.972Z,1.57
2022-11-07T13:47:29.556Z,1.00
2022-11-07T13:50:18.891Z,1.30
2022-11-07T13:52:55.332Z,0.87
2022-11-07T13:55:27.187Z,1.50
2022-11-07T13:57:58.635Z,1.10
2022-11-07T14:00:33.158Z,3.70
2022-11-07T14:03:01.560Z,1.50
2022-11-07T14:05:34.900Z,1.70
2022-11-07T14:08:05.881Z,1.10
2022-11-07T14:10:38.888Z,1.20
2022-11-07T14:13:10.185Z,2.40
2022-11-07T14:15:45.179Z,1.37
2022-11-07T14:18:15.950Z,1.20
2022-11-07T14:20:48.876Z,1.37
2022-11-07T14:23:17.692Z,1.70
2022-11-07T14:25:54.274Z,1.13
2022-11-07T14:28:21.984Z,1.00
2022-11-07T14:30:51.996Z,0.80
2022-11-07T14:33:21.619Z,0.93
2022-11-07T14:35:52.176Z,1.20
2022-11-07T14:38:25.277Z,0.73
2022-11-07T14:40:55.120Z,0.90
2022-11-07T14:43:25.859Z,1.07
2022-11-07T14:46:16.599Z,1.10
2022-11-07T14:48:45.764Z,1.50
2022-11-07T14:51:17.378Z,1.07
2022-11-07T14:53:52.325Z,1.37
2022-11-07T14:56:25.528Z,1.97
2022-11-07T14:58:53.872Z,1.20
2022-11-07T15:01:27.422Z,1.07
2022-11-07T15:03:57.754Z,1.23
2022-11-07T15:06:34.740Z,0.90
2022-11-07T15:09:04.679Z,0.90
2022-11-07T15:11:35.037Z,1.50
2022-11-07T15:14:04.668Z,0.98
2022-11-07T15:16:37.238Z,1.10
2022-11-07T15:19:08.529Z,1.00
2022-11-07T15:21:39.179Z,0.90
2022-11-07T15:24:26.816Z,1.15
2022-11-07T15:27:04.092Z,2.17
2022-11-07T15:29:33.553Z,1.70
2022-11-07T15:32:11.883Z,1.15
2022-11-07T15:35:00.920Z,2.45
2022-11-07T15:37:28.782Z,1.90
2022-11-07T15:39:56.697Z,1.25
2022-11-07T15:42:24.385Z,0.80
2022-11-07T15:44:52.078Z,1.80
2022-11-07T15:47:21.443Z,1.17
2022-11-07T15:49:49.478Z,1.45
2022-11-07T15:52:17.220Z,1.85
2022-11-07T15:54:46.334Z,1.58
2022-11-07T15:57:14.343Z,1.87
2022-11-07T15:59:43.487Z,3.20
2022-11-07T16:02:15.129Z,2.15
2022-11-07T16:04:43.532Z,2.10
2022-11-07T16:07:17.362Z,2.20
2022-11-07T16:09:48.457Z,1.55
2022-11-07T16:12:18.317Z,1.98
2022-11-07T16:14:46.155Z,1.20
2022-11-07T16:17:15.472Z,1.70
2022-11-07T16:19:43.239Z,1.70
2022-11-07T16:22:11.808Z,2.05
2022-11-07T16:24:39.591Z,2.13
2022-11-07T16:27:10.692Z,1.70
2022-11-07T16:29:38.475Z,1.70
2022-11-07T16:32:06.247Z,1.55
2022-11-07T16:34:33.911Z,1.20
2022-11-07T16:37:02.148Z,1.83
2022-11-07T16:39:31.496Z,2.10
2022-11-07T16:41:59.184Z,1.45
2022-11-07T16:44:28.389Z,1.25
2022-11-07T16:46:56.836Z,1.45
2022-11-07T16:49:30.530Z,1.70
2022-11-07T16:51:58.280Z,1.05
2022-11-07T16:54:26.370Z,1.13
2022-11-07T16:56:54.297Z,1.90
2022-11-07T16:59:23.832Z,1.15
2022-11-07T17:01:53.146Z,1.50
2022-11-07T17:04:20.971Z,1.10
2022-11-07T17:06:48.861Z,1.80
2022-11-07T17:09:20.181Z,2.40
2022-11-07T17:11:48.923Z,1.25
2022-11-07T17:14:16.597Z,1.38
2022-11-07T17:16:48.590Z,1.85
2022-11-07T17:19:17.634Z,2.33
2022-11-07T17:21:49.204Z,2.42
2022-11-07T17:24:17.299Z,3.90
2022-11-07T17:26:44.977Z,2.88
2022-11-07T17:29:14.040Z,3.50
2022-11-07T17:31:42.953Z,3.10
2022-11-07T17:34:11.181Z,4.32
2022-11-07T17:36:46.003Z,3.15
2022-11-07T17:39:16.182Z,3.40
2022-11-07T17:41:45.732Z,4.88
2022-11-07T17:44:13.649Z,3.15
2022-11-07T17:46:43.727Z,4.35
2022-11-07T17:49:14.503Z,2.60
2022-11-07T17:51:44.192Z,3.72
2022-11-07T17:54:13.452Z,4.53
2022-11-07T17:56:41.956Z,4.40
2022-11-07T17:59:13.889Z,4.10
2022-11-07T18:01:42.435Z,4.03
2022-11-07T18:04:13.043Z,4.53
2022-11-07T18:06:43.501Z,5.28
2022-11-07T18:09:16.134Z,4.88
2022-11-07T18:11:45.539Z,3.97
2022-11-07T18:14:14.511Z,5.20
2022-11-07T18:16:42.612Z,5.80
2022-11-07T18:19:10.991Z,5.97
2022-11-07T18:21:44.766Z,5.35
2022-11-07T18:24:13.114Z,4.85
2022-11-07T18:26:40.864Z,6.70
2022-11-07T18:29:10.253Z,4.47
2022-11-07T18:31:38.955Z,4.30
2022-11-07T18:34:08.985Z,3.60
2022-11-07T18:36:39.703Z,4.22
2022-11-07T18:39:11.724Z,3.70
2022-11-07T18:41:39.527Z,5.10
2022-11-07T18:44:07.302Z,4.25
2022-11-07T18:46:34.952Z,4.03
2022-11-07T18:49:03.184Z,3.35
2022-11-07T18:51:31.399Z,4.35
2022-11-07T18:54:01.093Z,5.32
2022-11-07T18:56:30.819Z,4.90
2022-11-07T18:58:59.138Z,4.97
2022-11-07T19:01:30.719Z,4.70
2022-11-07T19:04:00.719Z,5.20
2022-11-07T19:06:30.282Z,6.25
2022-11-07T19:08:58.713Z,5.30
2022-11-07T19:11:29.175Z,5.95
2022-11-07T19:14:01.247Z,5.70
2022-11-07T19:16:30.212Z,4.38
2022-11-07T19:18:59.758Z,5.63
2022-11-07T19:21:27.867Z,3.45
2022-11-07T19:23:55.611Z,3.22
2022-11-07T19:26:24.660Z,3.50
2022-11-07T19:28:53.833Z,7.47
2022-11-07T19:31:22.929Z,4.05
2022-11-07T19:33:50.623Z,4.97
2022-11-07T19:36:20.053Z,4.60
2022-11-07T19:38:48.661Z,6.10
2022-11-07T19:41:17.841Z,6.30
2022-11-07T19:43:49.776Z,6.47
2022-11-07T19:46:20.571Z,6.50
2022-11-07T19:48:50.496Z,6.07
2022-11-07T19:51:22.408Z,7.32
2022-11-07T19:53:54.442Z,6.78
2022-11-07T19:56:22.525Z,6.20
2022-11-07T19:58:50.344Z,6.93
2022-11-07T20:01:20.301Z,4.68
2022-11-07T20:03:51.449Z,4.50
2022-11-07T20:06:21.855Z,4.60
2022-11-07T20:08:49.996Z,3.60
2022-11-07T20:11:20.802Z,3.05
2022-11-07T20:13:49.010Z,3.88
2022-11-07T20:16:17.718Z,2.80
2022-11-07T20:18:46.153Z,4.40
2022-11-07T20:21:18.054Z,2.53
2022-11-07T20:23:47.390Z,2.15
2022-11-07T20:26:17.843Z,2.35
2022-11-07T20:28:46.370Z,1.90
2022-11-07T20:31:15.813Z,2.50
2022-11-07T20:33:43.946Z,1.65
2022-11-07T20:36:14.199Z,2.70
2022-11-07T20:38:44.607Z,1.83
2022-11-07T20:41:14.228Z,2.38
2022-11-07T20:43:43.901Z,2.25
2022-11-07T20:46:14.584Z,3.42
2022-11-07T20:48:43.386Z,2.20
2022-11-07T20:51:12.601Z,2.10
2022-11-07T20:53:45.391Z,2.40
2022-11-07T20:56:18.715Z,2.17
2022-11-07T20:58:47.279Z,2.55
2022-11-07T21:01:18.586Z,2.30
2022-11-07T21:03:46.904Z,2.05
2022-11-07T21:06:14.675Z,1.90
2022-11-07T21:08:44.314Z,1.90
2022-11-07T21:11:12.816Z,2.22
2022-11-07T21:13:45.445Z,1.92
2022-11-07T21:16:18.367Z,3.30
2022-11-07T21:18:46.403Z,3.28
2022-11-07T21:21:16.356Z,2.42
2022-11-07T21:23:44.333Z,3.40
2022-11-07T21:26:15.005Z,4.00
2022-11-07T21:28:44.259Z,4.70
2022-11-07T21:31:14.721Z,4.60
2022-11-07T21:33:42.797Z,3.80
2022-11-07T21:36:12.187Z,4.25
2022-11-07T21:38:40.216Z,4.95
2022-11-07T21:41:09.440Z,3.97
2022-11-07T21:43:38.015Z,2.95
2022-11-07T21:46:09.778Z,3.80
2022-11-07T21:48:38.469Z,2.38
2022-11-07T21:51:07.560Z,2.20
2022-11-07T21:53:38.055Z,3.58
2022-11-07T21:56:06.682Z,2.55
2022-11-07T21:58:34.441Z,3.30
2022-11-07T22:01:03.417Z,2.75
2022-11-07T22:04:03.841Z,3.00
2022-11-07T22:06:22.282Z,2.72
2022-11-07T22:08:51.924Z,3.47
2022-11-07T22:11:19.767Z,3.28
2022-11-07T22:13:47.663Z,3.10
2022-11-07T22:16:17.475Z,3.35
2022-11-07T22:18:47.356Z,2.58
2022-11-07T22:21:18.394Z,3.53
2022-11-07T22:23:46.401Z,2.60
2022-11-07T22:26:16.136Z,3.40
2022-11-07T22:28:46.091Z,3.70
2022-11-07T22:31:15.900Z,3.05
2022-11-07T22:33:43.951Z,2.70
2022-11-07T22:36:14.224Z,2.05
2022-11-07T22:38:42.726Z,2.53
2022-11-07T22:41:13.472Z,2.10
2022-11-07T22:43:41.349Z,2.08
2022-11-07T22:46:11.507Z,2.00
2022-11-07T22:48:39.516Z,2.55
2022-11-07T22:51:09.628Z,2.45
2022-11-07T22:53:39.521Z,1.58
2022-11-07T22:56:08.603Z,2.45
2022-11-07T22:58:36.480Z,1.60
2022-11-07T23:01:04.348Z,2.20
2022-11-07T23:03:32.640Z,2.22
2022-11-07T23:06:03.976Z,1.55
2022-11-07T23:08:31.964Z,1.80
2022-11-07T23:13:51.579Z,2.60
2022-11-07T23:16:20.900Z,1.75
2022-11-07T23:18:48.776Z,1.60
2022-11-07T23:21:18.159Z,1.92
2022-11-07T23:23:46.089Z,2.03
2022-11-07T23:26:17.378Z,1.70
2022-11-07T23:28:46.460Z,1.80
2022-11-07T23:31:15.125Z,1.90
2022-11-07T23:33:44.116Z,2.35
2022-11-07T23:36:13.873Z,2.30
2022-11-07T23:38:41.696Z,1.95
2022-11-07T23:41:12.371Z,2.00
2022-11-07T23:43:42.827Z,2.10
2022-11-07T23:46:26.880Z,1.95
2022-11-07T23:49:14.229Z,1.75
2022-11-07T23:51:43.533Z,2.08
2022-11-07T23:54:25.274Z,1.65
2022-11-07T23:56:53.006Z,2.05
2022-11-07T23:59:36.069Z,1.90
